Time;durP1;ratioP1;P1;durP2;ratioP2;P2;SDS_P1;SDS_P2;PMS_P1;PMS_P2;Temp;Humidity;BMP_temperature;BMP_pressure;BME280_temperature;BME280_humidity;BME280_pressure;Samples;Min_cycle;Max_cycle;Signal;HPM_P1;HPM_P2
2021/12/06 00:02:22;;;;;;;13.80;9.63;;;1.60;99.90;;;;;;5058397;28;20188;-89
2021/12/06 00:04:48;;;;;;;13.30;9.13;;;1.60;99.90;;;;;;5058250;28;20180;-89
2021/12/06 00:07:18;;;;;;;15.37;10.50;;;1.60;99.90;;;;;;5058718;28;20184;-88
2021/12/06 00:09:45;;;;;;;14.40;9.77;;;1.60;99.90;;;;;;5058341;28;20173;-89
2021/12/06 00:12:12;;;;;;;14.03;9.80;;;1.60;99.90;;;;;;5058642;28;20208;-89
2021/12/06 00:14:41;;;;;;;17.77;10.23;;;1.60;99.90;;;;;;5058711;28;20540;-89
2021/12/06 00:17:14;;;;;;;13.03;9.17;;;1.70;99.90;;;;;;5058526;28;20235;-89
2021/12/06 00:19:42;;;;;;;12.57;9.47;;;1.70;99.90;;;;;;5058192;28;20172;-89
2021/12/06 00:22:15;;;;;;;14.80;8.80;;;1.60;99.90;;;;;;5058221;28;20698;-89
2021/12/06 00:24:41;;;;;;;11.33;8.90;;;1.70;99.90;;;;;;5058530;28;20267;-89
2021/12/06 00:27:07;;;;;;;12.93;9.43;;;1.70;99.90;;;;;;5058378;28;20173;-89
2021/12/06 00:29:33;;;;;;;11.40;9.17;;;1.70;99.90;;;;;;5057799;28;20280;-88
2021/12/06 00:31:59;;;;;;;12.47;9.33;;;1.70;99.90;;;;;;5058356;28;20291;-89
2021/12/06 00:34:33;;;;;;;10.77;8.80;;;1.70;99.90;;;;;;5058580;28;20200;-89
2021/12/06 00:37:19;;;;;;;23.73;14.17;;;1.70;99.90;;;;;;5058440;28;20172;-89
2021/12/06 00:39:54;;;;;;;19.40;11.67;;;1.70;99.90;;;;;;5058290;28;20173;-88
2021/12/06 00:42:23;;;;;;;14.47;9.37;;;1.70;99.90;;;;;;5058121;28;20176;-89
2021/12/06 00:44:50;;;;;;;11.20;8.37;;;1.70;99.90;;;;;;5057787;28;20173;-89
2021/12/06 00:47:17;;;;;;;11.70;8.40;;;1.70;99.90;;;;;;5058057;28;20341;-89
2021/12/06 00:49:45;;;;;;;10.80;8.17;;;1.70;99.90;;;;;;5057746;28;20239;-89
2021/12/06 00:52:12;;;;;;;11.37;8.07;;;1.70;99.90;;;;;;5057555;28;20884;-89
2021/12/06 00:54:39;;;;;;;10.57;8.67;;;1.70;99.90;;;;;;5057951;28;20169;-89
2021/12/06 00:57:08;;;;;;;10.93;8.30;;;1.70;99.90;;;;;;5057788;28;20204;-88
2021/12/06 00:59:35;;;;;;;10.33;7.67;;;1.70;99.90;;;;;;5057082;28;20208;-89
2021/12/06 01:02:01;;;;;;;13.03;8.93;;;1.70;99.90;;;;;;5057188;28;20275;-89
2021/12/06 01:04:32;;;;;;;9.47;7.67;;;1.70;99.90;;;;;;5057956;28;20177;-89
2021/12/06 01:06:59;;;;;;;10.57;8.53;;;1.60;99.90;;;;;;5057779;28;20180;-89
2021/12/06 01:09:25;;;;;;;11.10;8.50;;;1.60;99.90;;;;;;5057016;28;20272;-89
2021/12/06 01:11:51;;;;;;;10.40;7.33;;;1.60;99.90;;;;;;5057125;28;20262;-88
2021/12/06 01:14:18;;;;;;;10.70;7.90;;;1.60;99.90;;;;;;5057271;28;20177;-89
2021/12/06 01:16:45;;;;;;;10.53;7.93;;;1.60;99.90;;;;;;5057512;28;20187;-89
2021/12/06 01:19:13;;;;;;;11.27;8.20;;;1.60;99.90;;;;;;5057276;28;20201;-89
2021/12/06 01:24:09;;;;;;;9.93;7.67;;;1.60;99.90;;;;;;5073988;28;20179;-89
2021/12/06 01:39:10;;;;;;;9.83;7.57;;;1.60;99.90;;;;;;5073745;28;20537;-89
2021/12/06 01:39:51;;;;;;;11.57;7.00;;;1.70;99.90;;;;;;5051230;28;20242;-89
2021/12/06 01:42:18;;;;;;;10.07;7.13;;;1.70;99.90;;;;;;5056983;28;20263;-89
2021/12/06 01:44:50;;;;;;;9.67;7.43;;;1.70;99.90;;;;;;5056664;28;20173;-89
2021/12/06 01:47:23;;;;;;;8.90;7.03;;;1.70;99.90;;;;;;5056903;28;20583;-89
2021/12/06 01:49:52;;;;;;;10.53;7.40;;;1.70;99.90;;;;;;5056584;28;20238;-89
2021/12/06 01:52:33;;;;;;;9.67;7.57;;;1.70;99.90;;;;;;5057261;28;20249;-89
2021/12/06 01:55:01;;;;;;;9.17;7.43;;;1.70;99.90;;;;;;5056781;28;20170;-89
2021/12/06 01:57:30;;;;;;;9.67;6.90;;;1.70;99.90;;;;;;5056742;28;20193;-89
2021/12/06 01:59:56;;;;;;;10.17;6.87;;;1.70;99.90;;;;;;5056460;28;20184;-89
2021/12/06 02:02:25;;;;;;;9.83;7.30;;;1.70;99.90;;;;;;5055966;28;20267;-89
2021/12/06 02:04:52;;;;;;;9.43;6.80;;;1.70;99.90;;;;;;5056503;28;20180;-89
2021/12/06 02:07:25;;;;;;;9.40;7.50;;;1.70;99.90;;;;;;5056214;28;20188;-89
2021/12/06 02:09:57;;;;;;;9.97;7.73;;;1.70;99.90;;;;;;5056111;28;20251;-89
2021/12/06 02:12:28;;;;;;;10.53;7.53;;;1.70;99.90;;;;;;5056441;28;20197;-89
2021/12/06 02:15:03;;;;;;;12.37;7.70;;;1.70;99.90;;;;;;5056031;28;20178;-89
2021/12/06 02:17:38;;;;;;;8.80;7.10;;;1.70;99.90;;;;;;5056294;28;20200;-89
2021/12/06 02:20:08;;;;;;;9.53;7.43;;;1.70;99.90;;;;;;5055809;28;20192;-89
2021/12/06 02:22:37;;;;;;;11.80;7.23;;;1.70;99.90;;;;;;5056231;28;20182;-89
2021/12/06 02:25:13;;;;;;;10.23;7.00;;;1.70;99.90;;;;;;5056188;28;20188;-89
2021/12/06 02:27:40;;;;;;;10.33;7.97;;;1.70;99.90;;;;;;5054988;28;20281;-89
2021/12/06 02:30:07;;;;;;;8.67;7.10;;;1.80;99.90;;;;;;5055927;28;20260;-89
2021/12/06 02:32:35;;;;;;;9.87;7.33;;;1.80;99.90;;;;;;5055870;28;20213;-89
2021/12/06 02:35:04;;;;;;;10.17;7.37;;;1.80;99.90;;;;;;5055949;28;20179;-88
2021/12/06 02:37:33;;;;;;;9.77;7.37;;;1.80;99.90;;;;;;5056093;28;20271;-89
2021/12/06 02:40:02;;;;;;;9.13;7.17;;;1.80;99.90;;;;;;5055725;28;20516;-89
2021/12/06 02:42:31;;;;;;;8.87;7.17;;;1.80;99.90;;;;;;5056305;28;20191;-89
2021/12/06 02:44:57;;;;;;;9.27;7.03;;;1.80;99.90;;;;;;5055635;28;20290;-89
2021/12/06 02:47:23;;;;;;;11.10;7.37;;;1.80;99.90;;;;;;5056131;28;20208;-89
2021/12/06 02:49:50;;;;;;;9.60;7.17;;;1.90;99.90;;;;;;5055672;28;20270;-89
2021/12/06 02:52:17;;;;;;;11.23;7.07;;;1.80;99.90;;;;;;5055644;28;20211;-89
2021/12/06 02:54:48;;;;;;;8.90;6.57;;;1.80;99.90;;;;;;5055344;28;20220;-89
2021/12/06 02:59:44;;;;;;;8.73;7.17;;;1.70;99.90;;;;;;5071864;28;20256;-89
2021/12/06 03:02:14;;;;;;;9.80;7.07;;;1.70;99.90;;;;;;5055461;28;20180;-89
2021/12/06 03:04:41;;;;;;;9.80;7.33;;;1.70;99.90;;;;;;5055706;28;20185;-89
2021/12/06 03:07:08;;;;;;;8.90;6.77;;;1.70;99.90;;;;;;5055268;28;20197;-89
2021/12/06 03:09:37;;;;;;;10.57;7.30;;;1.80;99.90;;;;;;5054899;28;20177;-89
2021/12/06 03:12:14;;;;;;;9.17;7.07;;;1.80;99.90;;;;;;5055497;28;20200;-89
2021/12/06 03:14:46;;;;;;;8.70;6.70;;;1.80;99.90;;;;;;5058868;28;20180;-89
2021/12/06 03:17:18;;;;;;;8.43;6.73;;;1.80;99.90;;;;;;5062255;28;20187;-89
2021/12/06 03:19:44;;;;;;;8.13;6.63;;;1.80;99.90;;;;;;5061754;28;20180;-89
2021/12/06 03:22:13;;;;;;;9.43;6.83;;;1.90;99.90;;;;;;5061851;28;20201;-89
2021/12/06 03:24:39;;;;;;;9.93;6.90;;;1.90;99.90;;;;;;5062059;28;20263;-89
2021/12/06 03:27:06;;;;;;;8.67;6.97;;;1.90;99.90;;;;;;5062181;28;20185;-89
2021/12/06 03:29:33;;;;;;;9.67;7.40;;;1.90;99.90;;;;;;5061942;28;20229;-89
2021/12/06 03:31:59;;;;;;;8.70;7.03;;;1.90;99.90;;;;;;5061829;28;20609;-89
2021/12/06 03:34:26;;;;;;;9.63;7.70;;;1.90;99.90;;;;;;5061908;28;20667;-89
2021/12/06 03:36:55;;;;;;;10.73;7.97;;;1.90;99.90;;;;;;5061845;28;20177;-89
2021/12/06 03:39:29;;;;;;;10.37;7.43;;;1.90;99.90;;;;;;5061725;28;20192;-89
2021/12/06 03:41:59;;;;;;;10.90;7.27;;;1.80;99.90;;;;;;5061979;28;20185;-89
2021/12/06 03:44:28;;;;;;;10.13;6.60;;;1.80;99.90;;;;;;5062115;28;20180;-89
2021/12/06 03:47:00;;;;;;;9.83;7.10;;;1.70;99.90;;;;;;5062200;28;20173;-89
2021/12/06 03:49:26;;;;;;;10.80;7.73;;;1.70;99.90;;;;;;5061414;28;20200;-89
2021/12/06 03:51:53;;;;;;;11.50;7.47;;;1.70;99.90;;;;;;5061719;28;20201;-89
2021/12/06 03:54:25;;;;;;;8.00;6.63;;;1.70;99.90;;;;;;5062112;28;20183;-89
2021/12/06 03:56:51;;;;;;;8.20;7.20;;;1.70;99.90;;;;;;5061873;28;20180;-89
2021/12/06 03:59:17;;;;;;;9.23;7.30;;;1.70;99.90;;;;;;5061500;28;20303;-89
2021/12/06 04:01:44;;;;;;;9.13;7.07;;;1.70;99.90;;;;;;5061474;28;20264;-89
2021/12/06 04:04:11;;;;;;;8.83;6.87;;;1.70;99.90;;;;;;5061899;28;20184;-89
2021/12/06 04:06:39;;;;;;;10.10;7.67;;;1.60;99.90;;;;;;5061790;28;20185;-89
2021/12/06 04:09:07;;;;;;;9.87;7.17;;;1.60;99.90;;;;;;5061739;28;20603;-89
2021/12/06 04:11:34;;;;;;;10.07;7.20;;;1.60;99.90;;;;;;5061681;28;20180;-89
2021/12/06 04:14:01;;;;;;;10.00;7.67;;;1.70;99.90;;;;;;5060814;28;20192;-89
2021/12/06 04:16:27;;;;;;;10.07;7.47;;;1.70;99.90;;;;;;5061309;28;20176;-89
2021/12/06 04:18:54;;;;;;;8.60;6.97;;;1.70;99.90;;;;;;5062112;28;20204;-88
2021/12/06 04:21:21;;;;;;;9.03;6.90;;;1.70;99.90;;;;;;5062131;28;20194;-88
2021/12/06 04:23:48;;;;;;;9.33;7.67;;;1.70;99.90;;;;;;5062380;28;20687;-89
2021/12/06 04:26:15;;;;;;;10.13;7.10;;;1.70;99.90;;;;;;5058718;28;20192;-89
2021/12/06 04:28:47;;;;;;;10.53;6.80;;;1.70;99.90;;;;;;5058769;28;20200;-89
2021/12/06 04:31:15;;;;;;;9.57;7.30;;;1.70;99.90;;;;;;5058936;28;20177;-89
2021/12/06 04:33:41;;;;;;;9.63;7.07;;;1.70;99.90;;;;;;5058735;28;20209;-88
2021/12/06 04:36:07;;;;;;;8.90;7.13;;;1.70;99.90;;;;;;5058815;28;20181;-89
2021/12/06 04:38:34;;;;;;;11.10;7.50;;;1.70;99.90;;;;;;5057897;28;20276;-89
2021/12/06 04:41:03;;;;;;;13.57;9.27;;;1.80;99.90;;;;;;5058499;28;20189;-88
2021/12/06 04:43:29;;;;;;;12.13;8.17;;;1.80;99.90;;;;;;5058855;28;20185;-89
2021/12/06 04:45:56;;;;;;;10.37;7.57;;;1.80;99.90;;;;;;5058573;28;20240;-88
2021/12/06 04:48:22;;;;;;;10.17;7.77;;;1.80;99.90;;;;;;5058750;28;20204;-89
2021/12/06 04:50:48;;;;;;;10.47;7.90;;;1.80;99.90;;;;;;5058068;28;20192;-89
2021/12/06 04:53:19;;;;;;;11.90;8.23;;;1.90;99.90;;;;;;5057817;28;20204;-89
2021/12/06 04:55:59;;;;;;;9.80;7.30;;;1.90;99.90;;;;;;5058308;28;20314;-89
2021/12/06 04:58:39;;;;;;;9.73;7.50;;;1.90;99.90;;;;;;5057867;28;20189;-89
2021/12/06 05:01:13;;;;;;;9.47;7.43;;;1.90;99.90;;;;;;5054803;28;20173;-88
2021/12/06 05:03:43;;;;;;;10.63;7.43;;;1.90;99.90;;;;;;5037823;28;20211;-89
2021/12/06 05:09:33;;;;;;;11.13;8.20;;;1.90;99.90;;;;;;5054530;28;20209;-89
2021/12/06 05:11:59;;;;;;;10.83;8.13;;;1.90;99.90;;;;;;5055391;28;20233;-89
2021/12/06 05:14:26;;;;;;;10.33;7.67;;;1.90;99.90;;;;;;5040255;28;20662;-89
2021/12/06 05:16:54;;;;;;;10.50;8.07;;;1.90;99.90;;;;;;5037976;28;20177;-90
2021/12/06 05:19:22;;;;;;;10.03;7.70;;;1.80;99.90;;;;;;5038046;28;20561;-90
2021/12/06 05:21:48;;;;;;;10.03;6.87;;;1.80;99.90;;;;;;5037965;28;20189;-89
2021/12/06 05:24:16;;;;;;;9.10;7.00;;;1.80;99.90;;;;;;5038488;28;20275;-89
2021/12/06 05:26:42;;;;;;;10.43;7.57;;;1.80;99.90;;;;;;5037681;28;20171;-89
2021/12/06 05:29:19;;;;;;;10.60;7.90;;;1.80;99.90;;;;;;5037567;28;20285;-90
2021/12/06 05:31:54;;;;;;;10.27;7.30;;;1.80;99.90;;;;;;5037392;28;20164;-90
2021/12/06 05:34:28;;;;;;;10.97;8.07;;;1.70;99.90;;;;;;5038030;28;20166;-90
2021/12/06 05:36:54;;;;;;;10.50;8.13;;;1.70;99.90;;;;;;5037523;28;20197;-89
2021/12/06 05:39:20;;;;;;;9.87;7.83;;;1.70;99.90;;;;;;5056015;28;20551;-90
2021/12/06 05:41:46;;;;;;;8.87;6.80;;;1.80;99.90;;;;;;5057685;28;20196;-89
2021/12/06 05:44:12;;;;;;;10.63;8.07;;;1.80;99.90;;;;;;5057875;28;20173;-90
2021/12/06 05:46:38;;;;;;;10.50;7.17;;;1.80;99.90;;;;;;5050038;28;20180;-89
2021/12/06 05:49:04;;;;;;;10.77;8.00;;;1.80;99.90;;;;;;5056408;28;20220;-88
2021/12/06 05:51:30;;;;;;;9.07;7.17;;;1.80;99.90;;;;;;5056516;28;20277;-90
2021/12/06 05:54:00;;;;;;;11.10;7.40;;;1.90;99.90;;;;;;5057477;28;20212;-89
2021/12/06 05:56:26;;;;;;;10.97;7.47;;;1.90;99.90;;;;;;5056777;28;20174;-88
2021/12/06 05:58:52;;;;;;;9.47;7.47;;;1.90;99.90;;;;;;5055874;28;20189;-89
2021/12/06 06:02:06;;;;;;;12.13;7.93;;;1.90;99.90;;;;;;5056076;28;20231;-89
2021/12/06 06:04:32;;;;;;;9.90;7.87;;;1.90;99.90;;;;;;5056167;28;20173;-89
2021/12/06 06:07:00;;;;;;;12.87;9.90;;;2.00;99.90;;;;;;5056638;28;20174;-89
2021/12/06 06:09:27;;;;;;;22.43;13.40;;;2.00;99.90;;;;;;5056007;28;20197;-89
2021/12/06 06:11:52;;;;;;;28.57;16.57;;;2.00;99.90;;;;;;5056081;28;20272;-89
2021/12/06 06:14:18;;;;;;;16.70;11.77;;;2.00;99.90;;;;;;5056138;28;20220;-89
2021/12/06 06:17:07;;;;;;;17.70;13.13;;;2.00;99.90;;;;;;5056018;28;20238;-89
2021/12/06 06:19:33;;;;;;;13.77;10.33;;;2.00;99.90;;;;;;5055975;28;20169;-89
2021/12/06 06:21:59;;;;;;;12.07;9.50;;;2.00;99.90;;;;;;5057158;28;20185;-89
2021/12/06 06:24:25;;;;;;;12.27;8.37;;;2.00;99.90;;;;;;5056873;28;20181;-88
2021/12/06 06:26:51;;;;;;;12.40;9.20;;;2.00;99.90;;;;;;5056853;28;20180;-89
2021/12/06 06:29:17;;;;;;;10.53;8.17;;;2.00;99.90;;;;;;5056067;28;20201;-89
2021/12/06 06:31:43;;;;;;;10.37;9.23;;;2.00;99.90;;;;;;5056097;28;20184;-89
2021/12/06 06:34:09;;;;;;;15.63;11.60;;;2.00;99.90;;;;;;5056324;28;20188;-89
2021/12/06 06:36:35;;;;;;;19.33;14.13;;;2.00;99.90;;;;;;5056342;28;20237;-88
2021/12/06 06:39:07;;;;;;;19.33;14.07;;;2.00;99.90;;;;;;5056376;28;20224;-89
2021/12/06 06:41:35;;;;;;;14.23;11.07;;;2.00;99.90;;;;;;5056688;28;20170;-89
2021/12/06 06:44:48;;;;;;;12.97;9.50;;;2.00;99.90;;;;;;5056472;28;20185;-89
2021/12/06 06:47:14;;;;;;;9.30;7.67;;;2.00;99.90;;;;;;5056357;28;20271;-89
2021/12/06 06:49:40;;;;;;;10.53;6.73;;;2.10;99.90;;;;;;5055287;28;20276;-89
2021/12/06 06:52:43;;;;;;;7.70;6.20;;;2.10;99.90;;;;;;5055931;28;20703;-89
2021/12/06 06:55:11;;;;;;;8.27;6.93;;;2.10;99.90;;;;;;5056558;28;20172;-89
2021/12/06 06:57:39;;;;;;;9.30;6.87;;;2.00;99.90;;;;;;5056057;28;20203;-89
2021/12/06 07:00:17;;;;;;;14.23;9.97;;;2.00;99.90;;;;;;5056055;28;20180;-89
2021/12/06 07:02:43;;;;;;;8.60;7.00;;;2.00;99.90;;;;;;5056185;28;20176;-89
2021/12/06 07:05:10;;;;;;;11.67;8.03;;;2.00;99.90;;;;;;5056347;28;20182;-89
2021/12/06 07:07:36;;;;;;;10.57;8.20;;;1.90;99.90;;;;;;5055158;28;20208;-89
2021/12/06 07:10:35;;;;;;;10.03;8.13;;;1.90;99.90;;;;;;5055339;28;20169;-89
2021/12/06 07:13:04;;;;;;;10.13;8.07;;;1.90;99.90;;;;;;5056163;28;20208;-89
2021/12/06 07:15:33;;;;;;;10.83;8.30;;;1.90;99.90;;;;;;5055599;28;20188;-89
2021/12/06 07:17:59;;;;;;;11.73;8.83;;;1.90;99.90;;;;;;5055790;28;20195;-89
2021/12/06 07:20:26;;;;;;;10.87;8.83;;;2.00;99.90;;;;;;5055287;28;20234;-90
2021/12/06 07:22:54;;;;;;;13.27;9.57;;;2.00;99.90;;;;;;5055096;28;20189;-89
2021/12/06 07:25:22;;;;;;;12.23;8.83;;;2.00;99.90;;;;;;5056169;28;20208;-89
2021/12/06 07:27:50;;;;;;;13.67;8.37;;;2.00;99.90;;;;;;5077432;28;20197;-88
2021/12/06 07:30:18;;;;;;;10.87;7.93;;;2.00;99.90;;;;;;5066213;28;20267;-90
2021/12/06 07:32:44;;;;;;;12.33;8.43;;;2.00;99.90;;;;;;5055681;28;20215;-89
2021/12/06 07:35:11;;;;;;;12.60;9.30;;;2.10;99.90;;;;;;5055748;28;20174;-89
2021/12/06 07:37:38;;;;;;;10.80;8.33;;;2.10;99.90;;;;;;5055421;28;20197;-89
2021/12/06 07:40:07;;;;;;;11.20;9.03;;;2.10;99.90;;;;;;5054999;28;20172;-89
2021/12/06 07:43:14;;;;;;;12.23;8.47;;;2.10;99.90;;;;;;5055598;28;20190;-90
2021/12/06 07:45:39;;;;;;;13.67;8.57;;;2.10;99.90;;;;;;5055561;28;20169;-90
2021/12/06 07:48:06;;;;;;;14.50;9.57;;;2.10;99.90;;;;;;5055358;28;20205;-89
2021/12/06 07:50:32;;;;;;;12.33;9.17;;;2.20;99.90;;;;;;5055242;28;20173;-89
2021/12/06 07:53:17;;;;;;;10.23;8.83;;;2.20;99.90;;;;;;5054499;28;20215;-89
2021/12/06 07:55:43;;;;;;;12.93;10.00;;;2.10;99.90;;;;;;5055324;28;20149;-90
2021/12/06 07:58:10;;;;;;;11.10;9.27;;;2.10;99.90;;;;;;5054298;28;20198;-90
2021/12/06 08:00:41;;;;;;;12.23;9.53;;;2.10;99.90;;;;;;5055197;28;20197;-89
2021/12/06 08:03:08;;;;;;;12.23;9.03;;;2.10;99.90;;;;;;5058784;28;20268;-90
2021/12/06 08:05:37;;;;;;;12.53;9.40;;;2.20;99.90;;;;;;5058733;28;20185;-90
2021/12/06 08:08:13;;;;;;;13.43;9.27;;;2.20;99.90;;;;;;5058524;28;20228;-90
2021/12/06 08:10:50;;;;;;;13.90;9.70;;;2.20;99.90;;;;;;5058358;28;20165;-90
2021/12/06 08:13:20;;;;;;;14.47;9.83;;;2.30;99.90;;;;;;5058323;28;20224;-90
2021/12/06 08:15:47;;;;;;;11.23;8.70;;;2.30;99.90;;;;;;5058308;28;20188;-89
2021/12/06 08:18:13;;;;;;;10.73;8.43;;;2.30;99.90;;;;;;5058637;28;20193;-90
2021/12/06 08:20:41;;;;;;;14.00;9.57;;;2.30;99.90;;;;;;5058360;28;20181;-90
2021/12/06 08:23:07;;;;;;;12.97;9.70;;;2.40;99.90;;;;;;5058376;28;20185;-90
2021/12/06 08:25:34;;;;;;;16.07;11.63;;;2.40;99.90;;;;;;5058608;28;20245;-90
2021/12/06 08:28:00;;;;;;;13.77;9.87;;;2.40;99.90;;;;;;5058052;28;20201;-88
2021/12/06 08:30:27;;;;;;;13.30;9.43;;;2.40;99.90;;;;;;5058015;28;20177;-89
2021/12/06 08:32:57;;;;;;;12.70;9.00;;;2.40;99.90;;;;;;5058698;28;20209;-89
2021/12/06 08:35:38;;;;;;;11.80;9.00;;;2.40;99.90;;;;;;5058978;28;20169;-89
2021/12/06 08:38:06;;;;;;;14.97;9.07;;;2.40;99.90;;;;;;5058275;28;20216;-89
2021/12/06 08:40:34;;;;;;;11.60;8.77;;;2.50;99.90;;;;;;5042561;28;20200;-89
2021/12/06 08:43:05;;;;;;;12.13;8.57;;;2.50;99.90;;;;;;5040376;28;20178;-89
2021/12/06 08:46:07;;;;;;;17.20;11.07;;;2.50;99.90;;;;;;5038196;28;20178;-89
2021/12/06 08:48:40;;;;;;;13.70;9.00;;;2.50;99.90;;;;;;5061281;28;20274;-89
2021/12/06 08:51:11;;;;;;;14.50;9.20;;;2.60;99.90;;;;;;5074913;28;20258;-89
2021/12/06 08:53:40;;;;;;;13.70;9.30;;;2.60;99.90;;;;;;5071591;28;20197;-89
2021/12/06 08:56:08;;;;;;;10.40;7.90;;;2.60;99.90;;;;;;5037823;28;20178;-89
2021/12/06 08:58:34;;;;;;;8.67;7.33;;;2.70;99.90;;;;;;5040680;28;20468;-89
2021/12/06 09:01:00;;;;;;;10.30;7.50;;;2.70;99.90;;;;;;5048025;28;20570;-89
2021/12/06 09:03:26;;;;;;;11.00;7.23;;;2.70;99.90;;;;;;5058499;28;20185;-90
2021/12/06 09:05:54;;;;;;;9.13;8.00;;;2.70;99.90;;;;;;5062487;28;20181;-89
2021/12/06 09:08:30;;;;;;;10.23;8.10;;;2.70;99.90;;;;;;5063082;28;20208;-92
2021/12/06 09:10:56;;;;;;;11.70;8.07;;;2.70;99.90;;;;;;5057751;28;20169;-90
2021/12/06 09:13:24;;;;;;;11.70;7.97;;;2.70;99.90;;;;;;5058108;28;20201;-90
2021/12/06 09:15:52;;;;;;;10.43;8.27;;;2.80;99.90;;;;;;5073921;28;20687;-90
2021/12/06 09:18:19;;;;;;;11.00;7.80;;;2.80;99.90;;;;;;5057804;28;20666;-90
2021/12/06 09:20:48;;;;;;;9.77;7.73;;;2.80;99.90;;;;;;5058204;28;20197;-90
2021/12/06 09:23:15;;;;;;;12.47;8.30;;;2.80;99.90;;;;;;5070359;28;20209;-90
2021/12/06 09:25:43;;;;;;;15.80;11.13;;;2.80;99.90;;;;;;5072919;28;20181;-90
2021/12/06 09:28:11;;;;;;;13.27;8.80;;;2.80;99.90;;;;;;5057044;28;20197;-90
2021/12/06 09:30:38;;;;;;;11.67;9.13;;;2.80;99.90;;;;;;5056567;28;20181;-90
2021/12/06 09:33:08;;;;;;;10.07;8.53;;;2.90;99.90;;;;;;5073793;28;20209;-90
2021/12/06 09:35:38;;;;;;;12.33;8.30;;;2.80;99.90;;;;;;5073647;28;20173;-90
2021/12/06 09:38:05;;;;;;;10.80;8.40;;;2.80;99.90;;;;;;5056936;28;20201;-90
2021/12/06 09:40:34;;;;;;;12.97;8.33;;;2.80;99.90;;;;;;5056871;28;20173;-90
2021/12/06 09:43:01;;;;;;;17.60;11.20;;;2.80;99.90;;;;;;5056958;28;20266;-90
2021/12/06 09:45:49;;;;;;;17.70;12.07;;;2.90;99.90;;;;;;5056194;28;20189;-90
2021/12/06 09:48:18;;;;;;;22.53;15.10;;;2.90;99.90;;;;;;5056170;28;20211;-90
2021/12/06 09:50:52;;;;;;;41.23;23.70;;;2.90;99.90;;;;;;5057229;28;20181;-90
2021/12/06 09:53:21;;;;;;;31.10;20.30;;;2.90;99.90;;;;;;5079768;28;20220;-89
2021/12/06 09:55:50;;;;;;;20.50;14.33;;;2.90;99.90;;;;;;5066480;28;20174;-90
2021/12/06 09:58:17;;;;;;;18.90;12.17;;;2.90;99.90;;;;;;5056689;28;20204;-90
2021/12/06 10:00:49;;;;;;;17.30;11.67;;;2.90;99.90;;;;;;5056604;28;20181;-90
2021/12/06 10:03:21;;;;;;;18.40;11.60;;;3.00;99.90;;;;;;5056741;28;20187;-90
2021/12/06 10:05:47;;;;;;;17.87;11.77;;;2.90;99.90;;;;;;5057116;28;20169;-90
2021/12/06 10:08:34;;;;;;;18.20;10.77;;;2.90;99.90;;;;;;5056091;28;20276;-90
2021/12/06 10:11:01;;;;;;;14.30;10.30;;;2.90;99.90;;;;;;5073468;28;20177;-90
2021/12/06 10:13:27;;;;;;;12.43;8.10;;;2.90;99.90;;;;;;5056563;28;20205;-90
2021/12/06 10:15:53;;;;;;;11.83;8.10;;;2.90;99.90;;;;;;5049557;28;20185;-90
2021/12/06 10:18:26;;;;;;;10.60;7.90;;;3.00;99.90;;;;;;5044784;28;20201;-89
2021/12/06 10:21:09;;;;;;;11.43;8.63;;;3.00;99.90;;;;;;5062933;28;20212;-90
2021/12/06 10:24:25;;;;;;;12.10;8.83;;;3.00;99.90;;;;;;5034322;28;20189;-90
2021/12/06 10:27:08;;;;;;;10.63;7.90;;;3.10;99.90;;;;;;5023021;28;20219;-90
2021/12/06 10:29:49;;;;;;;10.13;7.97;;;3.10;99.90;;;;;;5053010;28;20182;-90
2021/12/06 10:33:12;;;;;;;9.17;6.90;;;3.10;99.90;;;;;;5070112;28;20200;-90
2021/12/06 10:35:42;;;;;;;11.10;6.87;;;3.10;99.90;;;;;;5072738;28;20169;-90
2021/12/06 10:38:09;;;;;;;9.20;7.03;;;3.20;99.90;;;;;;5064011;28;20232;-90
2021/12/06 10:40:40;;;;;;;9.50;7.00;;;3.20;99.90;;;;;;5036204;28;20204;-90
2021/12/06 10:47:12;;;;;;;8.03;6.57;;;3.30;99.90;;;;;;5071930;28;20181;-90
2021/12/06 10:56:59;;;;;;;10.53;6.80;;;3.60;99.90;;;;;;5072081;28;20177;-90
2021/12/06 10:59:51;;;;;;;11.40;7.53;;;3.70;99.90;;;;;;5071571;28;20193;-90
2021/12/06 11:02:22;;;;;;;7.03;5.60;;;3.70;99.90;;;;;;5071817;28;20184;-90
2021/12/06 11:04:52;;;;;;;6.67;5.37;;;3.80;99.90;;;;;;5036047;28;20260;-90
2021/12/06 11:07:59;;;;;;;6.30;5.30;;;3.80;99.90;;;;;;5034578;28;20170;-90
2021/12/06 11:10:25;;;;;;;10.63;7.07;;;3.70;99.90;;;;;;5035019;28;20174;-90
2021/12/06 11:13:17;;;;;;;8.00;4.87;;;3.80;99.90;;;;;;5035657;28;20208;-90
2021/12/06 11:15:58;;;;;;;7.27;5.20;;;3.80;99.90;;;;;;5045592;28;20169;-90
2021/12/06 11:18:58;;;;;;;6.70;5.80;;;3.80;99.90;;;;;;5055254;28;20204;-90
2021/12/06 11:21:34;;;;;;;7.53;5.03;;;3.90;99.90;;;;;;5057049;28;20256;-90
2021/12/06 11:24:09;;;;;;;6.93;4.50;;;3.90;99.90;;;;;;5055354;28;20196;-90
2021/12/06 11:27:07;;;;;;;6.00;4.43;;;3.90;99.90;;;;;;5072017;28;20191;-89
2021/12/06 11:29:57;;;;;;;5.47;4.07;;;3.80;99.90;;;;;;5048130;28;20213;-90
2021/12/06 11:32:49;;;;;;;8.33;5.47;;;3.80;99.90;;;;;;5069131;28;20216;-90
2021/12/06 11:35:25;;;;;;;6.80;4.80;;;3.90;99.90;;;;;;5054475;28;20242;-90
2021/12/06 11:38:17;;;;;;;5.17;4.50;;;4.10;99.90;;;;;;5071165;28;20204;-89
2021/12/06 11:40:55;;;;;;;4.40;4.00;;;4.20;99.90;;;;;;5038584;28;20231;-90
2021/12/06 11:43:26;;;;;;;5.57;4.80;;;4.30;99.90;;;;;;5038387;28;20212;-90
2021/12/06 11:49:01;;;;;;;3.73;3.33;;;4.70;99.90;;;;;;5055382;28;20205;-90
2021/12/06 11:51:27;;;;;;;4.30;3.20;;;4.80;99.90;;;;;;5039072;28;20186;-90
2021/12/06 11:54:05;;;;;;;8.07;4.13;;;4.90;99.90;;;;;;5057320;28;20210;-90
2021/12/06 11:56:42;;;;;;;5.33;3.60;;;5.00;99.90;;;;;;5051556;28;20182;-90
2021/12/06 11:59:09;;;;;;;4.07;3.67;;;5.10;99.90;;;;;;5058463;28;20201;-90
2021/12/06 12:01:40;;;;;;;4.50;3.60;;;5.20;99.90;;;;;;5059032;28;20169;-90
2021/12/06 12:04:10;;;;;;;7.80;3.80;;;5.20;99.90;;;;;;5059195;28;20234;-90
2021/12/06 12:06:37;;;;;;;4.20;3.00;;;5.30;99.90;;;;;;5058687;28;20177;-90
2021/12/06 12:12:54;;;;;;;5.13;3.63;;;5.40;99.90;;;;;;5075816;28;20207;-90
2021/12/06 12:15:20;;;;;;;5.57;3.50;;;5.60;99.90;;;;;;5058160;28;20300;-90
2021/12/06 12:17:49;;;;;;;3.83;3.20;;;5.60;99.90;;;;;;5058103;28;20290;-90
2021/12/06 12:20:16;;;;;;;2.63;2.43;;;5.60;99.90;;;;;;5057752;28;20198;-90
2021/12/06 12:22:48;;;;;;;3.27;2.63;;;5.50;99.90;;;;;;5058095;28;20194;-90
2021/12/06 12:25:23;;;;;;;2.60;2.40;;;5.40;99.90;;;;;;5058139;28;20533;-89
2021/12/06 12:28:09;;;;;;;3.90;3.00;;;5.40;99.90;;;;;;5058509;28;20204;-89
2021/12/06 12:30:36;;;;;;;4.17;2.90;;;5.50;99.90;;;;;;5057386;28;20236;-90
2021/12/06 12:33:06;;;;;;;2.77;2.03;;;5.60;99.90;;;;;;5057978;28;20668;-90
2021/12/06 12:35:34;;;;;;;2.30;2.10;;;5.60;99.90;;;;;;5058096;28;20176;-89
2021/12/06 12:38:01;;;;;;;2.57;2.37;;;5.40;99.90;;;;;;5058514;28;20234;-89
2021/12/06 12:40:44;;;;;;;2.60;2.40;;;5.40;99.90;;;;;;5058049;28;20180;-90
2021/12/06 12:43:17;;;;;;;3.13;2.10;;;5.50;99.90;;;;;;5058338;28;20184;-89
2021/12/06 12:45:56;;;;;;;2.50;2.30;;;5.50;99.90;;;;;;5057491;28;20212;-90
2021/12/06 12:48:25;;;;;;;2.83;2.53;;;5.50;99.90;;;;;;5057284;28;20200;-89
2021/12/06 12:51:17;;;;;;;3.97;3.20;;;5.30;99.90;;;;;;5058056;28;20212;-90
2021/12/06 12:54:08;;;;;;;4.53;3.40;;;5.20;99.90;;;;;;5057350;28;20213;-91
2021/12/06 12:56:41;;;;;;;3.90;3.00;;;5.10;99.90;;;;;;5055976;28;20276;-90
2021/12/06 12:59:26;;;;;;;5.00;3.07;;;5.20;99.90;;;;;;5056952;28;20257;-90
2021/12/06 13:02:10;;;;;;;3.97;2.60;;;5.40;99.90;;;;;;5057793;28;20171;-90
2021/12/06 13:04:58;;;;;;;5.63;2.63;;;5.50;99.90;;;;;;5050670;28;20182;-90
2021/12/06 13:07:25;;;;;;;4.27;2.73;;;5.50;99.90;;;;;;5042829;28;20181;-90
2021/12/06 13:09:52;;;;;;;3.20;2.70;;;5.50;99.90;;;;;;5054998;28;20224;-90
2021/12/06 13:12:18;;;;;;;5.17;2.63;;;5.50;99.90;;;;;;5056883;28;20247;-90
2021/12/06 13:14:49;;;;;;;3.07;2.03;;;5.60;99.90;;;;;;5056983;28;20210;-90
2021/12/06 13:17:26;;;;;;;3.30;2.00;;;5.80;99.90;;;;;;5048883;28;20178;-90
2021/12/06 13:20:11;;;;;;;5.00;2.47;;;5.70;99.90;;;;;;5049770;28;20218;-90
2021/12/06 13:23:08;;;;;;;3.00;2.30;;;5.70;99.90;;;;;;5056684;28;20184;-90
2021/12/06 13:25:35;;;;;;;3.60;2.43;;;5.60;99.90;;;;;;5056838;28;20192;-90
2021/12/06 13:28:07;;;;;;;4.40;2.70;;;5.50;99.90;;;;;;5056803;28;20199;-90
2021/12/06 13:30:47;;;;;;;5.83;3.20;;;5.50;99.90;;;;;;5056573;28;20183;-90
2021/12/06 13:33:20;;;;;;;5.50;2.27;;;5.60;99.90;;;;;;5056493;28;20211;-91
2021/12/06 13:35:46;;;;;;;3.73;2.43;;;5.50;99.90;;;;;;5056821;28;20183;-90
2021/12/06 13:38:22;;;;;;;2.57;2.10;;;5.50;99.90;;;;;;5056380;28;20282;-89
2021/12/06 13:40:58;;;;;;;5.10;2.73;;;5.50;99.90;;;;;;5056594;28;20210;-90
2021/12/06 13:43:31;;;;;;;3.70;2.30;;;5.30;99.90;;;;;;5056269;28;20178;-90
2021/12/06 13:46:01;;;;;;;3.30;2.47;;;5.20;99.90;;;;;;5056565;28;20180;-90
2021/12/06 13:48:44;;;;;;;3.73;2.47;;;5.10;99.90;;;;;;5056486;28;20211;-90
2021/12/06 13:51:38;;;;;;;4.37;2.70;;;5.00;99.90;;;;;;5056078;28;20187;-90